Time;durP1;ratioP1;P1;durP2;ratioP2;P2;SDS_P1;SDS_P2;PMS_P1;PMS_P2;Temp;Humidity;BMP_temperature;BMP_pressure;BME280_temperature;BME280_humidity;BME280_pressure;Samples;Min_cycle;Max_cycle;Signal;HPM_P1;HPM_P2
2021/06/28 00:00:25;;;;;;;6.93;3.67;;;;;;;38.93;20.48;94667.38;5116849;28;20374;-66
2021/06/28 00:02:52;;;;;;;4.32;3.22;;;;;;;39.02;19.99;94670.03;5117404;28;20040;-62
2021/06/28 00:05:21;;;;;;;4.32;2.95;;;;;;;39.08;20.28;94670.97;5116994;28;20043;-59
2021/06/28 00:07:48;;;;;;;3.80;3.50;;;;;;;39.35;19.74;94674.75;5116871;28;20051;-62
2021/06/28 00:10:19;;;;;;;4.85;3.15;;;;;;;38.91;20.09;94669.06;5117430;28;20044;-61
2021/06/28 00:12:47;;;;;;;;;;;;;;;38.98;20.30;94674.16;5117678;28;20059;-63
2021/06/28 00:15:17;;;;;;;4.07;3.15;;;;;;;38.98;20.36;94680.41;5116947;28;19912;-62
2021/06/28 00:17:45;;;;;;;4.57;3.15;;;;;;;39.06;20.28;94676.16;5116733;28;20367;-65
2021/06/28 00:20:13;;;;;;;3.63;3.17;;;;;;;38.72;20.76;94674.59;5117417;28;20043;-59
2021/06/28 00:22:41;;;;;;;3.50;3.15;;;;;;;38.89;20.54;94672.25;5116853;28;20052;-66
2021/06/28 00:25:10;;;;;;;4.20;3.25;;;;;;;38.72;20.49;94673.84;5116771;28;20055;-67
2021/06/28 00:27:39;;;;;;;3.88;3.47;;;;;;;38.66;20.36;94675.69;5118281;27;20057;-67
2021/06/28 00:30:13;;;;;;;3.90;3.50;;;;;;;38.94;20.04;94674.34;5099622;28;20054;-64
2021/06/28 00:32:41;;;;;;;3.70;3.33;;;;;;;38.89;20.10;94677.72;5116743;28;20047;-66
2021/06/28 00:35:09;;;;;;;7.57;3.35;;;;;;;38.90;20.51;94679.22;5109837;28;20270;-63
2021/06/28 00:37:38;;;;;;;4.20;3.50;;;;;;;38.67;20.32;94667.03;5117204;27;20047;-64
2021/06/28 00:40:08;;;;;;;5.13;3.63;;;;;;;38.66;20.45;94670.22;5116956;28;20040;-61
2021/06/28 00:42:36;;;;;;;4.88;3.15;;;;;;;38.61;20.39;94671.56;5116742;28;20044;-65
2021/06/28 00:45:17;;;;;;;3.90;3.50;;;;;;;38.44;20.59;94676.63;5116353;28;20048;-69
2021/06/28 00:47:45;;;;;;;;;;;;;;;38.77;20.10;94668.50;5116606;28;20055;-68
2021/06/28 00:50:13;;;;;;;4.72;3.47;;;;;;;38.73;20.52;94675.34;5116561;28;19915;-65
2021/06/28 00:52:41;;;;;;;3.53;3.10;;;;;;;38.40;20.60;94670.56;5116393;28;20381;-62
2021/06/28 00:55:10;;;;;;;5.90;3.47;;;;;;;38.53;20.81;94668.44;5116250;28;20047;-65
2021/06/28 00:57:37;;;;;;;4.13;3.55;;;;;;;38.26;20.84;94665.78;5118497;27;20043;-65
2021/06/28 01:00:07;;;;;;;4.90;3.70;;;;;;;38.44;20.36;94668.44;5081529;28;20441;-66
2021/06/28 01:02:36;;;;;;;4.35;3.25;;;;;;;38.28;20.87;94666.06;5116306;28;20441;-62
2021/06/28 01:05:13;;;;;;;4.03;3.08;;;;;;;38.41;20.35;94666.63;5116255;28;20054;-65
2021/06/28 01:07:40;;;;;;;4.97;3.30;;;;;;;38.33;20.78;94653.78;5117631;27;20369;-62
2021/06/28 01:10:09;;;;;;;5.95;3.85;;;;;;;38.22;20.93;94659.69;5114427;28;20039;-59
2021/06/28 01:12:36;;;;;;;3.70;3.20;;;;;;;38.46;20.16;94652.34;5114890;28;20047;-68
2021/06/28 01:15:05;;;;;;;4.95;3.60;;;;;;;38.45;20.13;94667.22;5115905;28;20040;-69
2021/06/28 01:17:33;;;;;;;5.55;3.42;;;;;;;37.98;21.11;94673.19;5115864;28;20055;-66
2021/06/28 01:20:06;;;;;;;5.97;3.60;;;;;;;38.01;20.62;94660.63;5114919;28;20454;-64
2021/06/28 01:22:35;;;;;;;4.03;3.60;;;;;;;38.19;20.89;94660.63;5115430;28;20051;-66
2021/06/28 01:25:04;;;;;;;5.47;3.60;;;;;;;37.96;21.12;94651.81;5115761;28;20055;-67
2021/06/28 01:27:32;;;;;;;3.70;3.40;;;;;;;37.91;20.76;94652.44;5133006;27;20050;-65
2021/06/28 01:29:59;;;;;;;3.90;3.33;;;;;;;38.50;20.04;94657.66;5130161;27;20050;-62
2021/06/28 01:32:27;;;;;;;6.75;3.60;;;;;;;38.11;20.30;94660.16;5114335;28;20051;-61
2021/06/28 01:34:54;;;;;;;5.50;3.55;;;;;;;38.26;20.27;94660.31;5115153;28;20339;-61
2021/06/28 01:37:27;;;;;;;4.78;3.53;;;;;;;38.19;20.66;94663.34;5130217;27;20051;-68
2021/06/28 01:39:58;;;;;;;4.85;3.30;;;;;;;38.35;20.42;94668.47;5116913;27;20039;-63
2021/06/28 01:42:28;;;;;;;4.70;3.33;;;;;;;38.24;20.30;94670.91;5115358;28;20369;-66
2021/06/28 01:44:56;;;;;;;4.88;3.55;;;;;;;38.04;20.37;94665.19;5096241;28;20351;-67
2021/06/28 01:47:23;;;;;;;4.70;3.88;;;;;;;37.94;20.49;94667.91;5115354;28;20051;-59
2021/06/28 01:49:50;;;;;;;5.47;4.00;;;;;;;38.23;20.74;94667.41;5114311;28;20381;-67
2021/06/28 01:52:18;;;;;;;4.25;3.60;;;;;;;38.20;20.61;94673.03;5115264;28;20043;-64
2021/06/28 01:54:45;;;;;;;5.15;3.78;;;;;;;37.96;20.59;94675.63;5115462;28;20052;-64
2021/06/28 01:57:12;;;;;;;5.15;3.80;;;;;;;37.90;20.48;94672.75;5128883;27;20043;-66
2021/06/28 01:59:40;;;;;;;5.43;3.47;;;;;;;38.12;20.49;94669.09;5134216;27;20073;-66
2021/06/28 02:02:08;;;;;;;4.93;4.07;;;;;;;37.49;21.22;94665.16;5115194;28;20353;-67
2021/06/28 02:04:36;;;;;;;3.95;3.65;;;;;;;37.56;20.98;94667.59;5115416;28;20043;-64
2021/06/28 02:07:07;;;;;;;5.00;3.90;;;;;;;37.39;20.94;94671.78;5126921;27;20499;-66
2021/06/28 02:09:35;;;;;;;6.03;3.83;;;;;;;37.75;20.93;94682.03;5121487;27;20059;-70
2021/06/28 02:12:03;;;;;;;5.43;3.60;;;;;;;38.17;20.52;94676.69;5115047;28;20480;-62
2021/06/28 02:14:31;;;;;;;4.72;3.72;;;;;;;37.56;20.95;94679.25;5097312;28;20078;-64
2021/06/28 02:16:59;;;;;;;4.53;3.10;;;;;;;37.73;20.62;94679.72;5115113;28;20043;-67
2021/06/28 02:19:26;;;;;;;3.72;3.20;;;;;;;37.71;20.90;94687.59;5115164;28;20354;-65
2021/06/28 02:21:54;;;;;;;3.85;3.10;;;;;;;38.07;20.14;94688.81;5114454;28;20055;-66
2021/06/28 02:24:21;;;;;;;4.20;3.20;;;;;;;37.92;20.24;94683.97;5114961;28;20055;-65
2021/06/28 02:26:49;;;;;;;3.42;3.13;;;;;;;37.99;19.81;94684.88;5126091;28;20054;-69
2021/06/28 02:29:16;;;;;;;3.28;2.88;;;;;;;37.47;20.51;94679.22;5135808;28;20054;-65
2021/06/28 02:31:44;;;;;;;5.72;2.78;;;;;;;37.38;20.65;94681.19;5116541;28;20043;-62
2021/06/28 02:34:11;;;;;;;5.70;3.15;;;;;;;37.37;20.80;94680.44;5114926;28;20052;-63
2021/06/28 02:36:38;;;;;;;4.38;2.92;;;;;;;37.49;20.25;94681.53;5123409;28;20046;-67
2021/06/28 02:39:07;;;;;;;3.42;2.97;;;;;;;37.10;20.40;94675.66;5135465;28;20488;-67
2021/06/28 02:41:44;;;;;;;6.82;3.55;;;;;;;37.09;20.73;94682.31;5116772;28;20121;-64
2021/06/28 02:44:31;;;;;;;5.10;3.78;;;;;;;37.64;20.35;94677.72;5073094;28;20086;-67
2021/06/28 02:46:59;;;;;;;4.88;3.42;;;;;;;37.83;19.83;94683.97;5118564;28;20047;-68
2021/06/28 02:49:26;;;;;;;3.88;3.40;;;;;;;38.14;19.40;94680.31;5118705;28;20350;-63
2021/06/28 02:51:53;;;;;;;4.65;3.35;;;;;;;37.41;19.86;94685.72;5118357;28;20044;-66
2021/06/28 02:54:21;;;;;;;4.88;3.10;;;;;;;37.85;19.49;94684.28;5118813;28;20058;-66
2021/06/28 02:56:48;;;;;;;4.90;2.92;;;;;;;37.73;19.66;94685.16;5129930;27;20461;-62
2021/06/28 02:59:15;;;;;;;3.25;2.80;;;;;;;37.87;19.98;94690.03;5139372;27;20046;-63
2021/06/28 03:01:57;;;;;;;3.25;2.70;;;;;;;37.62;19.84;94684.84;5071405;28;20883;-67
2021/06/28 03:04:38;;;;;;;3.83;2.95;;;;;;;37.77;19.91;94680.34;5092167;27;20385;-64
2021/06/28 03:07:19;;;;;;;4.18;3.20;;;;;;;37.67;20.10;94686.97;5112272;27;20384;-68
2021/06/28 03:10:03;;;;;;;3.60;2.63;;;;;;;37.73;19.60;94690.63;5112135;27;20714;-66
2021/06/28 03:12:44;;;;;;;4.10;3.13;;;;;;;37.12;20.58;94688.81;5092241;27;20397;-65
2021/06/28 03:15:26;;;;;;;4.55;3.00;;;;;;;37.06;20.44;94683.22;5071900;28;20398;-63
2021/06/28 03:18:07;;;;;;;3.10;2.80;;;;;;;37.56;19.71;94686.66;5072062;28;20891;-67
2021/06/28 03:20:49;;;;;;;5.88;3.17;;;;;;;37.59;19.28;94691.22;5091541;27;20382;-68
2021/06/28 03:23:30;;;;;;;4.70;2.67;;;;;;;37.88;19.30;94691.56;5132909;27;20313;-68
2021/06/28 03:26:11;;;;;;;3.47;2.60;;;;;;;37.71;19.32;94682.16;5091821;27;20385;-65
2021/06/28 03:28:53;;;;;;;3.95;3.10;;;;;;;37.69;19.05;94681.81;5071984;28;20386;-67
2021/06/28 03:31:34;;;;;;;4.75;3.00;;;;;;;37.48;19.56;94688.94;5117556;27;19923;-65
2021/06/28 03:34:16;;;;;;;3.80;2.92;;;;;;;37.79;19.55;94693.53;5072054;28;20398;-63
2021/06/28 03:36:56;;;;;;;3.30;3.00;;;;;;;37.28;20.26;94702.22;5071683;28;20393;-66
2021/06/28 03:39:38;;;;;;;4.55;2.80;;;;;;;37.89;19.11;94693.06;5112380;27;20380;-66
2021/06/28 03:42:20;;;;;;;4.28;3.13;;;;;;;38.06;19.44;94690.78;5091937;27;20866;-65
2021/06/28 03:45:06;;;;;;;5.90;3.50;;;;;;;37.81;19.58;94697.31;5133112;27;20120;-67
2021/06/28 03:47:47;;;;;;;4.60;3.17;;;;;;;38.23;19.33;94699.41;5092022;27;20438;-65
2021/06/28 03:50:29;;;;;;;3.85;3.50;;;;;;;37.93;19.74;94706.53;5071403;28;20387;-67
2021/06/28 03:53:10;;;;;;;3.88;3.42;;;;;;;37.65;20.13;94700.31;5092333;27;20704;-66
2021/06/28 03:55:52;;;;;;;5.97;3.20;;;;;;;37.70;20.05;94718.78;5071737;28;20697;-68
2021/06/28 03:58:37;;;;;;;6.05;3.25;;;;;;;38.83;18.93;94712.34;5072078;28;20393;-62
2021/06/28 04:01:19;;;;;;;5.55;3.35;;;;;;;39.46;18.68;94707.78;5071473;28;20394;-66
2021/06/28 04:04:05;;;;;;;6.20;3.60;;;;;;;39.75;17.95;94716.13;5133080;27;20378;-59
2021/06/28 04:06:47;;;;;;;4.03;3.65;;;;;;;39.97;17.89;94706.88;5085351;27;20381;-69
2021/06/28 04:09:28;;;;;;;6.20;3.33;;;;;;;39.97;17.99;94713.09;5071955;28;20429;-64
2021/06/28 04:12:11;;;;;;;5.65;3.83;;;;;;;39.16;18.79;94712.38;5070631;28;20394;-64
2021/06/28 04:14:52;;;;;;;5.53;4.22;;;;;;;38.65;19.27;94706.94;5066770;27;20388;-51
2021/06/28 04:17:34;;;;;;;5.82;4.05;;;;;;;38.16;20.30;94716.84;5092050;28;20373;-58
2021/06/28 04:20:24;;;;;;;4.63;3.97;;;;;;;37.88;20.56;94712.63;5111857;27;20869;-75
2021/06/28 04:23:05;;;;;;;4.72;4.00;;;;;;;38.27;20.15;94708.22;5091960;27;20381;-56
2021/06/28 04:25:46;;;;;;;6.03;4.30;;;;;;;38.45;19.57;94710.91;5071530;28;20402;-56
2021/06/28 04:28:29;;;;;;;6.72;4.50;;;;;;;38.47;19.40;94711.19;5071949;28;20434;-55
2021/06/28 04:31:10;;;;;;;6.20;4.32;;;;;;;38.04;20.21;94719.75;5071568;28;20391;-70
2021/06/28 04:33:52;;;;;;;8.43;6.10;;;;;;;37.30;21.59;94716.91;5112635;27;20376;-53
2021/06/28 04:36:33;;;;;;;10.77;6.20;;;;;;;39.29;19.74;94720.34;5071725;28;20890;-68
2021/06/28 04:39:14;;;;;;;9.35;6.40;;;;;;;37.71;21.62;94714.88;5053019;28;20395;-67
2021/06/28 04:41:56;;;;;;;8.75;6.18;;;;;;;37.77;21.15;94718.53;5088675;27;20381;-67
2021/06/28 04:44:37;;;;;;;7.55;6.75;;;;;;;38.35;20.55;94723.06;5091579;27;20389;-60
2021/06/28 04:47:19;;;;;;;12.25;6.22;;;;;;;39.38;19.10;94723.06;5056805;28;20395;-55
2021/06/28 04:50:03;;;;;;;6.30;5.70;;;;;;;37.86;20.72;94726.72;5072079;28;20126;-57
2021/06/28 04:52:45;;;;;;;9.13;5.35;;;;;;;37.53;21.12;94731.19;5112653;27;20376;-59
2021/06/28 04:55:26;;;;;;;10.75;5.82;;;;;;;37.46;21.44;94731.47;5071584;28;20895;-56
2021/06/28 04:58:08;;;;;;;6.22;5.47;;;;;;;38.33;20.42;94730.97;5092201;27;20381;-59
2021/06/28 05:00:49;;;;;;;7.32;5.07;;;;;;;37.79;21.64;94729.75;5071662;28;20401;-60
2021/06/28 05:03:31;;;;;;;7.75;5.38;;;;;;;37.39;21.84;94732.53;5071955;28;20390;-57
2021/06/28 05:06:12;;;;;;;7.82;5.10;;;;;;;37.89;21.36;94731.25;5112063;27;20391;-56
2021/06/28 05:08:55;;;;;;;6.80;5.28;;;;;;;37.46;21.30;94734.19;5092201;27;20414;-56
2021/06/28 05:11:37;;;;;;;5.60;4.72;;;;;;;37.41;21.69;94735.56;5091718;27;20377;-55
2021/06/28 05:14:19;;;;;;;7.25;4.65;;;;;;;37.82;20.90;94736.25;5112508;27;20387;-55
2021/06/28 05:16:59;;;;;;;6.05;4.75;;;;;;;37.51;21.24;94739.06;5112399;27;20376;-55
2021/06/28 05:19:40;;;;;;;6.15;4.60;;;;;;;37.66;21.38;94745.44;5092057;28;20404;-56
2021/06/28 05:22:22;;;;;;;7.00;5.05;;;;;;;38.18;20.97;94735.53;5112110;27;20868;-56
2021/06/28 05:25:05;;;;;;;7.07;4.70;;;;;;;37.85;21.03;94733.38;5072061;28;20398;-56
2021/06/28 05:27:47;;;;;;;11.35;5.00;;;;;;;38.41;20.19;94737.63;5113410;27;20174;-56
2021/06/28 05:30:27;;;;;;;8.95;4.90;;;;;;;38.14;20.48;94737.63;5064123;28;20391;-56
2021/06/28 05:33:10;;;;;;;7.45;4.93;;;;;;;38.61;20.08;94739.09;5072018;28;20398;-56
2021/06/28 05:35:50;;;;;;;7.75;5.18;;;;;;;38.24;21.13;94745.38;5112004;27;20876;-56
2021/06/28 05:38:32;;;;;;;5.97;4.28;;;;;;;38.60;20.07;94743.81;5071997;28;20697;-56
2021/06/28 05:41:16;;;;;;;6.68;4.90;;;;;;;38.48;20.21;94753.69;5071601;28;20397;-57
2021/06/28 05:43:57;;;;;;;8.27;5.00;;;;;;;38.97;19.47;94755.38;5091694;27;20388;-55
2021/06/28 05:46:38;;;;;;;6.78;4.95;;;;;;;39.21;19.94;94757.47;5112322;27;20379;-57
2021/06/28 05:49:19;;;;;;;7.03;4.90;;;;;;;38.93;20.00;94768.47;5072143;28;20397;-56
2021/06/28 05:52:00;;;;;;;6.57;4.32;;;;;;;38.90;20.07;94766.66;5091377;27;20863;-58
2021/06/28 05:54:42;;;;;;;5.10;4.60;;;;;;;39.37;19.16;94768.03;5092254;28;20175;-59
2021/06/28 05:57:24;;;;;;;7.03;4.80;;;;;;;39.03;19.57;94771.91;5071585;28;20394;-58
2021/06/28 06:00:08;;;;;;;5.30;4.60;;;;;;;39.43;19.26;94774.38;5071917;28;20387;-56
2021/06/28 06:02:53;;;;;;;6.28;4.68;;;;;;;39.21;19.15;94780.06;5133146;27;20488;-56
2021/06/28 06:05:34;;;;;;;7.13;4.85;;;;;;;39.55;18.96;94778.88;5071624;28;20389;-57
2021/06/28 06:08:16;;;;;;;4.90;4.32;;;;;;;39.58;18.93;94780.69;5065165;28;20399;-56
2021/06/28 06:10:58;;;;;;;6.07;4.43;;;;;;;39.61;18.93;94777.03;5091713;27;20385;-56
2021/06/28 06:13:40;;;;;;;5.07;4.53;;;;;;;39.51;18.62;94778.28;5112470;27;20694;-63
2021/06/28 06:16:23;;;;;;;7.10;4.70;;;;;;;39.56;18.89;94774.94;5091934;27;20381;-57
2021/06/28 06:19:05;;;;;;;7.65;4.30;;;;;;;39.55;19.05;94770.66;5092255;28;20126;-55
2021/06/28 06:21:46;;;;;;;6.15;4.18;;;;;;;39.77;18.77;94782.06;5111979;27;20384;-57
2021/06/28 06:24:29;;;;;;;8.25;4.25;;;;;;;39.83;18.71;94784.19;5072021;28;20393;-55
2021/06/28 06:27:10;;;;;;;5.75;4.53;;;;;;;39.84;19.05;94774.75;5112043;27;20398;-58
2021/06/28 06:29:52;;;;;;;6.60;4.43;;;;;;;40.44;18.42;94779.19;5092229;27;20385;-56
2021/06/28 06:32:33;;;;;;;5.15;4.18;;;;;;;40.09;18.62;94779.78;5071743;28;20390;-56
2021/06/28 06:35:15;;;;;;;5.57;4.03;;;;;;;39.61;19.29;94771.56;5112517;27;20388;-58
2021/06/28 06:37:57;;;;;;;5.55;4.32;;;;;;;40.14;18.88;94784.59;5112225;27;20379;-56
2021/06/28 06:40:37;;;;;;;5.28;4.28;;;;;;;40.03;18.55;94787.09;5071729;28;20394;-55
2021/06/28 06:43:19;;;;;;;5.57;4.10;;;;;;;40.68;18.60;94790.84;5112242;27;20761;-56
2021/06/28 06:46:00;;;;;;;5.72;4.50;;;;;;;41.09;18.11;94780.06;5071631;28;20393;-58
2021/06/28 06:48:42;;;;;;;5.53;4.32;;;;;;;41.47;17.75;94782.66;5075285;27;20390;-57
2021/06/28 06:51:27;;;;;;;12.00;4.70;;;;;;;41.40;17.94;94777.59;5091240;28;20379;-57
2021/06/28 06:54:10;;;;;;;6.07;4.25;;;;;;;41.04;17.92;94773.25;5071903;28;20391;-55
2021/06/28 06:56:51;;;;;;;5.75;4.30;;;;;;;40.84;18.05;94776.69;5091113;27;20373;-60
2021/06/28 06:59:32;;;;;;;7.90;4.10;;;;;;;41.39;17.56;94776.06;5112451;27;20392;-59
2021/06/28 07:02:13;;;;;;;5.00;4.10;;;;;;;41.33;17.44;94782.69;5070782;28;20877;-55
2021/06/28 07:04:55;;;;;;;4.80;3.53;;;;;;;41.41;16.95;94770.88;5112205;27;20722;-63
2021/06/28 07:07:37;;;;;;;6.47;4.38;;;;;;;41.33;17.22;94777.19;5071517;28;20394;-56
2021/06/28 07:10:18;;;;;;;7.10;4.28;;;;;;;42.08;17.29;94771.75;5112473;27;20392;-55
2021/06/28 07:12:59;;;;;;;5.80;3.58;;;;;;;42.20;16.71;94777.38;5071255;28;20391;-58
2021/06/28 07:15:41;;;;;;;5.05;3.72;;;;;;;42.61;16.64;94767.84;5071824;28;20701;-59
2021/06/28 07:18:22;;;;;;;5.07;3.67;;;;;;;42.28;16.72;94770.97;5133078;27;20336;-57
2021/06/28 07:21:04;;;;;;;5.13;3.20;;;;;;;42.57;16.67;94763.78;5091925;27;20393;-56
2021/06/28 07:23:46;;;;;;;4.82;3.60;;;;;;;42.13;16.95;94767.56;5081352;28;20381;-57
2021/06/28 07:26:26;;;;;;;6.00;3.17;;;;;;;43.27;15.60;94758.63;5091985;27;20385;-56
2021/06/28 07:29:08;;;;;;;3.13;2.83;;;;;;;42.69;16.48;94755.19;5092241;28;20384;-55
2021/06/28 07:31:49;;;;;;;5.32;3.10;;;;;;;42.60;16.62;94758.09;5091684;27;20389;-57
2021/06/28 07:34:31;;;;;;;2.80;2.53;;;;;;;42.56;16.49;94751.31;5112275;27;20380;-57
2021/06/28 07:37:12;;;;;;;6.82;3.08;;;;;;;42.97;15.96;94751.94;5119290;27;20339;-61
2021/06/28 07:39:54;;;;;;;4.10;2.97;;;;;;;42.86;15.60;94751.81;5092061;28;20393;-56
2021/06/28 07:42:35;;;;;;;4.15;2.70;;;;;;;42.71;16.37;94747.19;5071668;28;20379;-59
2021/06/28 07:45:16;;;;;;;5.80;2.80;;;;;;;41.16;17.38;94752.28;5103461;27;20711;-55
2021/06/28 07:47:58;;;;;;;3.70;2.97;;;;;;;41.82;17.65;94757.19;5092214;27;20388;-56
2021/06/28 07:50:40;;;;;;;3.65;2.90;;;;;;;43.03;15.68;94755.47;5059773;28;20388;-56
2021/06/28 07:53:22;;;;;;;3.92;2.50;;;;;;;42.56;15.86;94757.53;5055230;28;20415;-59
2021/06/28 07:59:05;;;;;;;5.00;2.45;;;;;;;42.85;15.24;94758.53;5092030;28;20727;-56
2021/06/28 08:01:47;;;;;;;6.22;2.75;;;;;;;43.82;14.74;94763.00;5086839;27;20379;-58
2021/06/28 08:04:28;;;;;;;2.15;1.95;;;;;;;42.83;15.67;94758.28;5112413;27;20387;-55
2021/06/28 08:07:09;;;;;;;3.67;2.50;;;;;;;43.26;15.43;94762.63;5112225;27;20391;-57
2021/06/28 08:09:51;;;;;;;5.75;2.53;;;;;;;43.80;15.07;94757.22;5091134;27;20677;-57
2021/06/28 08:12:33;;;;;;;2.72;2.30;;;;;;;43.60;15.59;94762.84;5119176;27;20129;-58
2021/06/28 08:15:16;;;;;;;3.20;2.55;;;;;;;43.46;14.87;94764.50;5086033;28;20386;-66
2021/06/28 08:17:56;;;;;;;4.78;2.78;;;;;;;43.63;14.18;94770.13;5072107;28;20401;-57
2021/06/28 08:20:38;;;;;;;3.17;2.28;;;;;;;43.49;14.11;94768.31;5112139;27;20388;-57
2021/06/28 08:23:19;;;;;;;5.75;2.63;;;;;;;43.74;14.42;94766.72;5112250;27;20808;-59
2021/06/28 08:26:01;;;;;;;4.60;2.15;;;;;;;43.58;14.59;94766.09;5071723;28;20386;-58
2021/06/28 08:28:44;;;;;;;5.05;2.40;;;;;;;43.72;13.84;94769.94;5072168;28;20401;-56
2021/06/28 08:31:26;;;;;;;4.45;2.90;;;;;;;44.20;14.15;94769.16;5112153;27;20375;-60
2021/06/28 08:34:07;;;;;;;3.78;2.90;;;;;;;44.21;13.96;94767.91;5071974;28;20398;-63
2021/06/28 08:36:49;;;;;;;4.18;3.45;;;;;;;44.28;13.64;94772.94;5091953;28;20374;-63
2021/06/28 08:39:30;;;;;;;4.50;4.03;;;;;;;43.97;13.52;94763.53;5127825;27;19920;-57
2021/06/28 08:42:11;;;;;;;5.90;5.03;;;;;;;44.04;14.28;94767.09;5091997;27;20389;-59
2021/06/28 08:44:53;;;;;;;12.32;4.82;;;;;;;43.79;14.26;94758.47;5071101;28;20393;-56
2021/06/28 08:47:34;;;;;;;3.45;2.95;;;;;;;43.57;13.73;94758.34;5132950;27;20173;-57
2021/06/28 08:50:15;;;;;;;3.85;3.45;;;;;;;43.57;13.75;94753.59;5071951;28;20709;-59
2021/06/28 08:52:58;;;;;;;4.07;3.67;;;;;;;43.74;13.26;94764.72;5116991;27;20129;-58
2021/06/28 08:55:40;;;;;;;4.32;3.75;;;;;;;44.04;13.51;94758.81;5071382;28;20389;-57
2021/06/28 08:58:21;;;;;;;3.47;3.17;;;;;;;44.27;13.16;94763.19;5092337;27;20389;-58
2021/06/28 09:01:04;;;;;;;3.35;2.83;;;;;;;44.14;12.94;94765.63;5092034;27;20381;-54
2021/06/28 09:03:45;;;;;;;3.97;2.78;;;;;;;44.39;12.43;94770.19;5092092;28;20807;-65
2021/06/28 09:06:28;;;;;;;3.38;2.40;;;;;;;44.08;12.41;94767.63;5091766;28;20874;-59
2021/06/28 09:09:12;;;;;;;2.60;2.38;;;;;;;43.54;11.92;94754.56;5092239;27;20677;-59
2021/06/28 09:11:53;;;;;;;2.90;2.42;;;;;;;44.16;11.89;94757.63;5091897;28;20373;-58
2021/06/28 09:14:49;;;;;;;3.28;2.40;;;;;;;43.86;12.22;94763.50;5072055;28;20390;-54
2021/06/28 09:17:36;;;;;;;5.47;2.15;;;;;;;43.86;11.89;94763.50;5112404;27;20684;-58
2021/06/28 09:20:23;;;;;;;3.75;1.83;;;;;;;43.53;12.48;94760.56;5112371;27;20384;-56
2021/06/28 09:23:17;;;;;;;3.92;2.15;;;;;;;44.05;12.12;94763.06;5071642;28;20393;-57
2021/06/28 09:26:00;;;;;;;2.22;2.03;;;;;;;44.48;11.97;94761.72;5112278;27;20120;-58
2021/06/28 09:28:45;;;;;;;4.28;2.10;;;;;;;44.29;12.58;94761.44;5112596;27;20721;-59
2021/06/28 09:31:32;;;;;;;4.75;2.28;;;;;;;44.07;12.28;94766.09;5071604;28;20394;-57
2021/06/28 09:34:21;;;;;;;2.80;2.17;;;;;;;44.25;12.03;94763.69;5071975;28;20389;-57
2021/06/28 09:37:02;;;;;;;2.83;2.40;;;;;;;43.67;11.73;94767.88;5071438;28;20898;-56
2021/06/28 09:39:45;;;;;;;3.03;1.90;;;;;;;43.48;11.83;94766.81;5092018;27;20392;-55
2021/06/28 09:42:28;;;;;;;4.28;2.08;;;;;;;43.97;12.23;94762.78;5102480;27;20129;-57
2021/06/28 09:45:18;;;;;;;3.08;2.22;;;;;;;44.24;12.54;94764.16;5071697;28;20717;-57
2021/06/28 09:47:59;;;;;;;4.25;3.55;;;;;;;44.04;12.81;94761.56;5072115;28;20389;-59
2021/06/28 09:50:48;;;;;;;3.40;2.00;;;;;;;43.25;13.36;94752.88;5051770;28;20402;-56
2021/06/28 09:54:17;;;;;;;3.40;2.13;;;;;;;43.19;12.83;94762.31;5016316;28;20131;-56
2021/06/28 09:57:21;;;;;;;3.42;1.83;;;;;;;42.68;13.63;94769.38;5128075;27;20474;-62
2021/06/28 10:00:29;;;;;;;2.63;1.98;;;;;;;43.36;12.94;94772.22;5067247;28;20202;-58
2021/06/28 10:03:39;;;;;;;1.85;1.60;;;;;;;43.63;12.58;94767.38;5116229;27;20869;-56
2021/06/28 10:06:35;;;;;;;1.60;1.45;;;;;;;43.82;11.54;94757.47;5088841;27;20403;-57
2021/06/28 10:09:36;;;;;;;1.92;1.38;;;;;;;43.79;11.26;94763.97;5128338;27;20505;-57
2021/06/28 10:12:36;;;;;;;1.90;1.70;;;;;;;43.56;11.45;94757.59;5122628;27;20021;-56
2021/06/28 10:15:42;;;;;;;2.20;1.40;;;;;;;43.89;11.94;94751.50;5121212;27;20410;-58
2021/06/28 10:18:32;;;;;;;2.00;1.50;;;;;;;43.98;10.81;94754.06;5051813;28;20871;-60
2021/06/28 10:21:28;;;;;;;1.73;1.20;;;;;;;44.03;10.10;94755.31;5094011;27;20410;-58
2021/06/28 10:24:22;;;;;;;1.20;1.10;;;;;;;44.13;9.77;94755.88;5092604;27;20405;-56
2021/06/28 10:27:33;;;;;;;1.40;1.27;;;;;;;44.39;10.92;94747.41;5130752;27;20423;-57
2021/06/28 10:30:29;;;;;;;1.73;1.10;;;;;;;44.32;10.26;94745.91;5092625;27;20404;-59
2021/06/28 10:33:41;;;;;;;1.55;1.20;;;;;;;44.35;10.29;94750.41;5150981;27;20422;-56
2021/06/28 10:36:44;;;;;;;1.75;1.00;;;;;;;43.89;9.86;94748.00;5115156;27;20439;-60
2021/06/28 10:39:56;;;;;;;1.60;1.33;;;;;;;43.78;9.90;94739.69;5092404;27;20438;-58
2021/06/28 10:42:51;;;;;;;1.48;1.20;;;;;;;43.76;11.06;94736.69;5092645;27;20402;-57
2021/06/28 10:45:46;;;;;;;2.65;1.60;;;;;;;43.85;11.94;94731.72;5051433;28;20386;-58
2021/06/28 10:48:48;;;;;;;1.85;1.33;;;;;;;43.97;11.17;94735.25;5051927;28;20398;-56
2021/06/28 10:51:48;;;;;;;3.75;1.33;;;;;;;43.79;11.60;94725.44;5071691;28;20397;-58
2021/06/28 10:54:35;;;;;;;2.30;1.20;;;;;;;43.51;10.85;94730.78;5058595;28;20052;-56
2021/06/28 10:57:39;;;;;;;1.38;1.20;;;;;;;43.51;11.32;94725.28;5066054;28;20044;-59
2021/06/28 11:00:49;;;;;;;2.22;1.08;;;;;;;43.44;11.19;94728.50;5071762;28;20044;-57
2021/06/28 11:03:35;;;;;;;1.38;1.10;;;;;;;42.94;10.11;94726.19;5071747;28;20044;-56
2021/06/28 11:06:25;;;;;;;2.53;1.30;;;;;;;43.15;11.47;94721.28;5057592;28;20043;-58
2021/06/28 11:09:11;;;;;;;;;;;;;;;43.87;11.98;94715.44;5071636;28;20486;-57
2021/06/28 11:11:57;;;;;;;2.97;1.30;;;;;;;43.34;12.22;94714.19;5060763;28;19920;-59
2021/06/28 11:14:44;;;;;;;3.05;1.27;;;;;;;43.54;11.43;94716.06;5059484;28;20044;-63
2021/06/28 11:17:45;;;;;;;1.77;1.30;;;;;;;43.45;12.21;94709.97;5055093;28;20051;-59
2021/06/28 11:20:40;;;;;;;3.35;1.30;;;;;;;43.87;12.00;94711.94;5056638;28;20048;-57
2021/06/28 11:23:30;;;;;;;3.50;1.23;;;;;;;43.79;11.98;94708.94;5065771;28;20510;-62
2021/06/28 11:25:59;;;;;;;1.50;1.08;;;;;;;43.33;12.03;94707.19;5071238;28;20478;-57
2021/06/28 11:29:11;;;;;;;2.80;1.10;;;;;;;44.19;11.26;94696.03;5069472;28;20149;-56
2021/06/28 11:32:29;;;;;;;2.85;1.48;;;;;;;43.85;11.74;94698.69;5113547;27;20439;-61
2021/06/28 11:34:58;;;;;;;2.33;1.42;;;;;;;43.78;11.40;94695.66;5112409;28;20036;-56
2021/06/28 11:37:28;;;;;;;1.30;1.10;;;;;;;43.67;11.30;94691.59;5123263;28;20048;-62
2021/06/28 11:39:55;;;;;;;;;;;;;;;43.87;11.53;94685.16;5112789;28;20070;-62
2021/06/28 11:43:04;;;;;;;1.55;1.20;;;;;;;43.85;11.11;94679.41;5092671;27;20399;-56
2021/06/28 11:46:01;;;;;;;1.67;1.27;;;;;;;43.57;11.41;94670.28;5195726;27;20410;-60
2021/06/28 11:49:04;;;;;;;1.98;1.30;;;;;;;43.75;11.94;94686.41;5195266;27;20374;-58
2021/06/28 11:51:59;;;;;;;2.33;1.65;;;;;;;43.69;11.77;94678.09;5123941;27;20690;-58
2021/06/28 11:55:04;;;;;;;1.75;1.30;;;;;;;43.33;11.17;94674.19;5195592;27;20374;-60
2021/06/28 11:58:00;;;;;;;1.83;1.27;;;;;;;43.07;10.56;94679.75;5118442;27;19922;-64
2021/06/28 12:01:05;;;;;;;3.08;1.20;;;;;;;42.68;10.40;94673.19;5123818;27;20523;-62
2021/06/28 12:04:06;;;;;;;2.38;1.15;;;;;;;43.38;11.27;94670.69;5075028;27;20984;-60
2021/06/28 12:07:03;;;;;;;2.97;1.60;;;;;;;43.54;11.57;94657.50;5092379;27;20403;-59
2021/06/28 12:10:01;;;;;;;1.75;1.25;;;;;;;43.81;11.38;94665.13;5195535;27;20394;-65
2021/06/28 12:13:03;;;;;;;1.73;1.23;;;;;;;43.35;11.45;94660.69;5121916;27;20008;-57
2021/06/28 12:16:25;;;;;;;2.47;1.13;;;;;;;43.31;10.91;94657.41;5195697;27;20406;-60
2021/06/28 12:19:28;;;;;;;1.52;1.30;;;;;;;43.88;11.55;94661.16;5113567;27;21058;-60
2021/06/28 12:22:31;;;;;;;1.30;1.17;;;;;;;43.43;11.18;94657.44;5092280;27;20426;-60
2021/06/28 12:25:32;;;;;;;1.75;1.35;;;;;;;43.60;11.40;94661.03;5115511;27;20433;-60
2021/06/28 12:28:13;;;;;;;2.80;1.25;;;;;;;43.22;11.52;94663.09;5112337;27;20391;-57
2021/06/28 12:30:55;;;;;;;2.60;1.45;;;;;;;43.29;11.44;94657.16;5071920;28;20897;-61
2021/06/28 12:33:37;;;;;;;2.97;1.30;;;;;;;43.23;11.71;94648.09;5133034;27;19926;-59
2021/06/28 12:36:21;;;;;;;1.38;1.27;;;;;;;43.40;11.60;94648.19;5112134;27;20388;-61
2021/06/28 12:39:03;;;;;;;4.63;1.50;;;;;;;43.01;10.92;94643.22;5071919;28;20408;-61
2021/06/28 12:41:46;;;;;;;1.13;1.02;;;;;;;43.11;10.96;94643.78;5071845;28;20391;-61
2021/06/28 12:44:27;;;;;;;2.05;1.10;;;;;;;43.19;10.95;94644.81;5133262;27;20176;-60